sensor_id;sensor_type;location;lat;lon;timestamp;pressure;altitude;pressure_sealevel;temperature;humidity
70900;BME280;67902;52.154;5.430;2023-04-27T00:01:46;102250.59;;;2.10;86.13
70900;BME280;67902;52.154;5.430;2023-04-27T00:04:12;102246.53;;;2.06;86.39
70900;BME280;67902;52.154;5.430;2023-04-27T00:06:39;102251.56;;;2.09;86.41
70900;BME280;67902;52.154;5.430;2023-04-27T00:09:06;102255.47;;;2.15;86.78
70900;BME280;67902;52.154;5.430;2023-04-27T00:11:33;102257.66;;;2.19;87.59
70900;BME280;67902;52.154;5.430;2023-04-27T00:13:59;102259.03;;;2.23;87.74
70900;BME280;67902;52.154;5.430;2023-04-27T00:16:26;102255.22;;;2.26;87.78
70900;BME280;67902;52.154;5.430;2023-04-27T00:18:52;102252.72;;;2.24;88.02
70900;BME280;67902;52.154;5.430;2023-04-27T00:21:19;102251.03;;;2.23;87.69
70900;BME280;67902;52.154;5.430;2023-04-27T00:23:45;102250.72;;;2.26;88.38
70900;BME280;67902;52.154;5.430;2023-04-27T00:26:12;102254.06;;;2.28;88.37
70900;BME280;67902;52.154;5.430;2023-04-27T00:28:38;102255.59;;;2.31;88.40
70900;BME280;67902;52.154;5.430;2023-04-27T00:31:05;102251.69;;;2.25;88.02
70900;BME280;67902;52.154;5.430;2023-04-27T00:33:31;102250.34;;;2.21;88.91
70900;BME280;67902;52.154;5.430;2023-04-27T00:36:01;102245.94;;;2.12;87.50
70900;BME280;67902;52.154;5.430;2023-04-27T00:38:28;102249.69;;;2.02;87.78
70900;BME280;67902;52.154;5.430;2023-04-27T00:41:02;102252.59;;;1.91;87.46
70900;BME280;67902;52.154;5.430;2023-04-27T00:43:28;102248.69;;;1.85;88.22
70900;BME280;67902;52.154;5.430;2023-04-27T00:45:54;102250.97;;;1.80;88.31
70900;BME280;67902;52.154;5.430;2023-04-27T00:48:21;102247.31;;;1.81;88.27
70900;BME280;67902;52.154;5.430;2023-04-27T00:50:49;102253.03;;;1.86;88.88
70900;BME280;67902;52.154;5.430;2023-04-27T00:53:16;102254.56;;;1.89;88.91
70900;BME280;67902;52.154;5.430;2023-04-27T00:55:42;102255.09;;;1.92;88.58
70900;BME280;67902;52.154;5.430;2023-04-27T00:58:09;102258.91;;;1.90;88.93
70900;BME280;67902;52.154;5.430;2023-04-27T01:00:35;102255.69;;;1.86;88.18
70900;BME280;67902;52.154;5.430;2023-04-27T01:03:02;102252.66;;;1.81;88.21
70900;BME280;67902;52.154;5.430;2023-04-27T01:05:30;102250.81;;;1.82;88.64
70900;BME280;67902;52.154;5.430;2023-04-27T01:07:58;102243.41;;;1.75;88.81
70900;BME280;67902;52.154;5.430;2023-04-27T01:10:24;102238.38;;;1.72;88.61
70900;BME280;67902;52.154;5.430;2023-04-27T01:12:50;102238.56;;;1.71;89.17
70900;BME280;67902;52.154;5.430;2023-04-27T01:15:17;102240.81;;;1.66;89.43
70900;BME280;67902;52.154;5.430;2023-04-27T01:17:43;102235.00;;;1.53;88.17
70900;BME280;67902;52.154;5.430;2023-04-27T01:20:10;102234.94;;;1.45;88.61
70900;BME280;67902;52.154;5.430;2023-04-27T01:22:37;102237.66;;;1.35;89.04
70900;BME280;67902;52.154;5.430;2023-04-27T01:25:03;102236.91;;;1.43;89.26
70900;BME280;67902;52.154;5.430;2023-04-27T01:27:30;102245.16;;;1.49;89.76
70900;BME280;67902;52.154;5.430;2023-04-27T01:29:57;102251.63;;;1.47;89.34
70900;BME280;67902;52.154;5.430;2023-04-27T01:32:23;102254.28;;;1.47;89.65
70900;BME280;67902;52.154;5.430;2023-04-27T01:34:49;102255.31;;;1.46;89.92
70900;BME280;67902;52.154;5.430;2023-04-27T01:37:16;102253.31;;;1.48;90.05
70900;BME280;67902;52.154;5.430;2023-04-27T01:39:43;102244.47;;;1.47;89.49
70900;BME280;67902;52.154;5.430;2023-04-27T01:42:09;102239.97;;;1.48;89.67
70900;BME280;67902;52.154;5.430;2023-04-27T01:44:36;102241.78;;;1.47;90.01
70900;BME280;67902;52.154;5.430;2023-04-27T01:47:03;102237.97;;;1.50;89.09
70900;BME280;67902;52.154;5.430;2023-04-27T01:49:29;102230.28;;;1.47;89.43
70900;BME280;67902;52.154;5.430;2023-04-27T01:51:56;102231.88;;;1.40;89.58
70900;BME280;67902;52.154;5.430;2023-04-27T01:54:22;102221.34;;;1.38;89.61
70900;BME280;67902;52.154;5.430;2023-04-27T01:56:48;102227.81;;;1.36;89.13
70900;BME280;67902;52.154;5.430;2023-04-27T01:59:15;102225.75;;;1.30;89.32
70900;BME280;67902;52.154;5.430;2023-04-27T02:01:41;102223.25;;;1.28;88.86
70900;BME280;67902;52.154;5.430;2023-04-27T02:04:08;102217.91;;;1.28;89.57
70900;BME280;67902;52.154;5.430;2023-04-27T02:06:34;102224.94;;;1.29;89.16
70900;BME280;67902;52.154;5.430;2023-04-27T02:09:01;102223.00;;;1.22;88.84
70900;BME280;67902;52.154;5.430;2023-04-27T02:11:27;102225.09;;;1.18;88.81
70900;BME280;67902;52.154;5.430;2023-04-27T02:13:54;102218.97;;;1.17;89.66
70900;BME280;67902;52.154;5.430;2023-04-27T02:16:20;102234.25;;;1.15;89.63
70900;BME280;67902;52.154;5.430;2023-04-27T02:18:47;102234.25;;;1.15;90.03
70900;BME280;67902;52.154;5.430;2023-04-27T02:21:14;102234.31;;;1.06;88.99
70900;BME280;67902;52.154;5.430;2023-04-27T02:23:41;102227.34;;;0.95;89.54
70900;BME280;67902;52.154;5.430;2023-04-27T02:26:15;102224.13;;;0.92;89.80
70900;BME280;67902;52.154;5.430;2023-04-27T02:28:42;102226.41;;;0.87;89.70
70900;BME280;67902;52.154;5.430;2023-04-27T02:31:10;102230.91;;;0.86;89.90
70900;BME280;67902;52.154;5.430;2023-04-27T02:33:36;102224.63;;;0.78;89.20
70900;BME280;67902;52.154;5.430;2023-04-27T02:36:03;102220.72;;;0.72;89.59
70900;BME280;67902;52.154;5.430;2023-04-27T02:38:29;102225.19;;;0.72;89.85
70900;BME280;67902;52.154;5.430;2023-04-27T02:40:55;102215.38;;;0.72;90.19
70900;BME280;67902;52.154;5.430;2023-04-27T02:43:22;102216.50;;;0.70;89.78
70900;BME280;67902;52.154;5.430;2023-04-27T02:45:48;102208.25;;;0.63;89.81
70900;BME280;67902;52.154;5.430;2023-04-27T02:48:15;102210.91;;;0.63;89.39
70900;BME280;67902;52.154;5.430;2023-04-27T02:50:42;102202.53;;;0.58;89.14
70900;BME280;67902;52.154;5.430;2023-04-27T02:53:10;102207.84;;;0.58;89.78
70900;BME280;67902;52.154;5.430;2023-04-27T02:55:37;102208.53;;;0.60;89.46
70900;BME280;67902;52.154;5.430;2023-04-27T02:58:03;102205.19;;;0.58;90.27
70900;BME280;67902;52.154;5.430;2023-04-27T03:00:30;102200.16;;;0.55;90.19
70900;BME280;67902;52.154;5.430;2023-04-27T03:02:56;102205.78;;;0.52;89.62
70900;BME280;67902;52.154;5.430;2023-04-27T03:05:25;102207.03;;;0.48;89.42
70900;BME280;67902;52.154;5.430;2023-04-27T03:07:53;102211.53;;;0.47;90.03
70900;BME280;67902;52.154;5.430;2023-04-27T03:10:20;102210.94;;;0.53;90.43
70900;BME280;67902;52.154;5.430;2023-04-27T03:12:46;102214.56;;;0.62;90.60
70900;BME280;67902;52.154;5.430;2023-04-27T03:15:13;102213.84;;;0.70;90.21
70900;BME280;67902;52.154;5.430;2023-04-27T03:17:39;102217.88;;;0.74;90.87
70900;BME280;67902;52.154;5.430;2023-04-27T03:20:06;102218.03;;;0.72;90.60
70900;BME280;67902;52.154;5.430;2023-04-27T03:22:35;102225.88;;;0.74;90.75
70900;BME280;67902;52.154;5.430;2023-04-27T03:25:02;102220.72;;;0.72;91.52
70900;BME280;67902;52.154;5.430;2023-04-27T03:27:29;102227.41;;;0.76;91.66
70900;BME280;67902;52.154;5.430;2023-04-27T03:29:55;102229.94;;;0.78;91.57
70900;BME280;67902;52.154;5.430;2023-04-27T03:32:21;102228.72;;;0.72;91.46
70900;BME280;67902;52.154;5.430;2023-04-27T03:34:48;102227.03;;;0.71;91.25
70900;BME280;67902;52.154;5.430;2023-04-27T03:37:14;102219.59;;;0.65;91.59
70900;BME280;67902;52.154;5.430;2023-04-27T03:39:41;102222.84;;;0.59;91.65
70900;BME280;67902;52.154;5.430;2023-04-27T03:42:07;102223.44;;;0.53;91.51
70900;BME280;67902;52.154;5.430;2023-04-27T03:44:33;102224.16;;;0.45;91.21
70900;BME280;67902;52.154;5.430;2023-04-27T03:47:01;102221.66;;;0.44;90.83
70900;BME280;67902;52.154;5.430;2023-04-27T03:49:27;102221.94;;;0.41;91.72
70900;BME280;67902;52.154;5.430;2023-04-27T03:51:54;102226.00;;;0.45;91.15
70900;BME280;67902;52.154;5.430;2023-04-27T03:54:20;102222.44;;;0.54;91.67
70900;BME280;67902;52.154;5.430;2023-04-27T03:56:47;102229.19;;;0.48;91.25
70900;BME280;67902;52.154;5.430;2023-04-27T03:59:13;102225.28;;;0.43;90.88
70900;BME280;67902;52.154;5.430;2023-04-27T04:01:40;102227.81;;;0.44;91.63
70900;BME280;67902;52.154;5.430;2023-04-27T04:04:07;102229.75;;;0.42;90.88
70900;BME280;67902;52.154;5.430;2023-04-27T04:06:33;102234.28;;;0.42;91.23
70900;BME280;67902;52.154;5.430;2023-04-27T04:09:00;102225.84;;;0.46;91.53
70900;BME280;67902;52.154;5.430;2023-04-27T04:11:27;102229.47;;;0.45;91.62
70900;BME280;67902;52.154;5.430;2023-04-27T04:13:53;102230.19;;;0.47;91.67
70900;BME280;67902;52.154;5.430;2023-04-27T04:16:20;102230.03;;;0.49;92.04
70900;BME280;67902;52.154;5.430;2023-04-27T04:18:46;102231.44;;;0.53;91.76
70900;BME280;67902;52.154;5.430;2023-04-27T04:21:13;102229.59;;;0.53;91.83
70900;BME280;67902;52.154;5.430;2023-04-27T04:23:39;102234.78;;;0.55;91.92
70900;BME280;67902;52.154;5.430;2023-04-27T04:26:06;102228.50;;;0.56;92.32
70900;BME280;67902;52.154;5.430;2023-04-27T04:28:34;102238.16;;;0.57;91.67
70900;BME280;67902;52.154;5.430;2023-04-27T04:31:00;102244.31;;;0.57;92.01
70900;BME280;67902;52.154;5.430;2023-04-27T04:33:27;102239.97;;;0.56;91.40
70900;BME280;67902;52.154;5.430;2023-04-27T04:35:54;102247.72;;;0.50;91.62
70900;BME280;67902;52.154;5.430;2023-04-27T04:38:20;102255.44;;;0.43;90.69
70900;BME280;67902;52.154;5.430;2023-04-27T04:40:48;102254.47;;;0.35;90.76
70900;BME280;67902;52.154;5.430;2023-04-27T04:43:15;102258.38;;;0.40;90.65
70900;BME280;67902;52.154;5.430;2023-04-27T04:45:42;102264.69;;;0.49;91.36
70900;BME280;67902;52.154;5.430;2023-04-27T04:48:08;102263.13;;;0.56;91.82
70900;BME280;67902;52.154;5.430;2023-04-27T04:50:35;102265.19;;;0.62;91.16
70900;BME280;67902;52.154;5.430;2023-04-27T04:53:02;102259.28;;;0.68;91.42
70900;BME280;67902;52.154;5.430;2023-04-27T04:55:28;102263.91;;;0.76;92.28
70900;BME280;67902;52.154;5.430;2023-04-27T04:57:55;102264.72;;;0.76;91.75
70900;BME280;67902;52.154;5.430;2023-04-27T05:00:21;102267.28;;;0.78;91.85
70900;BME280;67902;52.154;5.430;2023-04-27T05:02:48;102263.19;;;0.83;91.82
70900;BME280;67902;52.154;5.430;2023-04-27T05:05:14;102251.66;;;0.92;91.00
70900;BME280;67902;52.154;5.430;2023-04-27T05:07:41;102253.69;;;0.98;90.99
70900;BME280;67902;52.154;5.430;2023-04-27T05:10:08;102257.09;;;1.00;90.48
70900;BME280;67902;52.154;5.430;2023-04-27T05:12:34;102260.44;;;1.02;90.77
70900;BME280;67902;52.154;5.430;2023-04-27T05:15:01;102257.09;;;1.00;90.31
70900;BME280;67902;52.154;5.430;2023-04-27T05:17:27;102255.00;;;0.94;89.46
70900;BME280;67902;52.154;5.430;2023-04-27T05:19:54;102260.53;;;1.10;90.64
70900;BME280;67902;52.154;5.430;2023-04-27T05:22:20;102255.38;;;1.27;90.26
70900;BME280;67902;52.154;5.430;2023-04-27T05:24:46;102256.56;;;1.42;90.41
70900;BME280;67902;52.154;5.430;2023-04-27T05:27:13;102254.38;;;1.55;90.27
70900;BME280;67902;52.154;5.430;2023-04-27T05:29:42;102260.34;;;1.66;90.51
70900;BME280;67902;52.154;5.430;2023-04-27T05:32:08;102261.03;;;1.86;90.47
70900;BME280;67902;52.154;5.430;2023-04-27T05:34:35;102268.22;;;2.03;89.60
70900;BME280;67902;52.154;5.430;2023-04-27T05:37:02;102268.03;;;2.22;89.62
70900;BME280;67902;52.154;5.430;2023-04-27T05:39:28;102266.50;;;2.38;90.06
70900;BME280;67902;52.154;5.430;2023-04-27T05:41:55;102261.84;;;2.65;88.77
70900;BME280;67902;52.154;5.430;2023-04-27T05:44:21;102266.28;;;3.08;88.25
70900;BME280;67902;52.154;5.430;2023-04-27T05:46:50;102277.66;;;3.60;87.81
70900;BME280;67902;52.154;5.430;2023-04-27T05:49:16;102269.06;;;4.15;87.16
70900;BME280;67902;52.154;5.430;2023-04-27T05:51:43;102265.19;;;4.65;85.02
70900;BME280;67902;52.154;5.430;2023-04-27T05:54:09;102263.44;;;4.97;83.16
70900;BME280;67902;52.154;5.430;2023-04-27T05:56:36;102262.88;;;5.48;80.42
70900;BME280;67902;52.154;5.430;2023-04-27T05:59:03;102257.31;;;5.80;78.37
70900;BME280;67902;52.154;5.430;2023-04-27T06:01:29;102263.91;;;6.01;77.53
70900;BME280;67902;52.154;5.430;2023-04-27T06:03:55;102258.63;;;6.30;75.86
70900;BME280;67902;52.154;5.430;2023-04-27T06:06:26;102264.34;;;6.50;74.58
70900;BME280;67902;52.154;5.430;2023-04-27T06:08:53;102264.66;;;6.69;74.49
70900;BME280;67902;52.154;5.430;2023-04-27T06:11:20;102260.78;;;6.86;72.24
70900;BME280;67902;52.154;5.430;2023-04-27T06:13:47;102256.41;;;6.85;71.68
70900;BME280;67902;52.154;5.430;2023-04-27T06:16:14;102265.06;;;6.95;71.62
70900;BME280;67902;52.154;5.430;2023-04-27T06:18:41;102257.53;;;6.91;70.64
70900;BME280;67902;52.154;5.430;2023-04-27T06:21:07;102262.19;;;7.12;70.61
70900;BME280;67902;52.154;5.430;2023-04-27T06:23:33;102258.75;;;7.18;69.85
70900;BME280;67902;52.154;5.430;2023-04-27T06:26:00;102256.53;;;7.21;69.42
70900;BME280;67902;52.154;5.430;2023-04-27T06:28:27;102256.16;;;7.60;72.27
70900;BME280;67902;52.154;5.430;2023-04-27T06:30:54;102268.94;;;7.73;69.75
70900;BME280;67902;52.154;5.430;2023-04-27T06:33:20;102262.19;;;7.62;68.96
70900;BME280;67902;52.154;5.430;2023-04-27T06:35:47;102264.41;;;7.73;68.13
70900;BME280;67902;52.154;5.430;2023-04-27T06:38:13;102259.34;;;7.85;68.44
70900;BME280;67902;52.154;5.430;2023-04-27T06:40:39;102261.78;;;7.80;67.96
70900;BME280;67902;52.154;5.430;2023-04-27T06:43:06;102273.53;;;8.14;68.18
70900;BME280;67902;52.154;5.430;2023-04-27T06:45:32;102273.22;;;8.24;68.61
70900;BME280;67902;52.154;5.430;2023-04-27T06:47:58;102269.59;;;8.32;68.97
70900;BME280;67902;52.154;5.430;2023-04-27T06:50:29;102263.81;;;8.35;66.33
70900;BME280;67902;52.154;5.430;2023-04-27T06:52:55;102266.59;;;8.48;66.12
70900;BME280;67902;52.154;5.430;2023-04-27T06:55:22;102273.00;;;8.68;65.61
70900;BME280;67902;52.154;5.430;2023-04-27T06:57:49;102267.25;;;8.78;64.72
70900;BME280;67902;52.154;5.430;2023-04-27T07:00:15;102270.75;;;8.44;65.29
70900;BME280;67902;52.154;5.430;2023-04-27T07:02:42;102262.19;;;8.40;65.95
70900;BME280;67902;52.154;5.430;2023-04-27T07:05:09;102270.28;;;8.19;66.23
70900;BME280;67902;52.154;5.430;2023-04-27T07:07:35;102272.78;;;8.21;67.00
70900;BME280;67902;52.154;5.430;2023-04-27T07:10:02;102268.94;;;8.30;66.23
70900;BME280;67902;52.154;5.430;2023-04-27T07:12:29;102276.72;;;8.39;66.13
70900;BME280;67902;52.154;5.430;2023-04-27T07:14:55;102255.94;;;8.40;64.51
70900;BME280;67902;52.154;5.430;2023-04-27T07:17:22;102270.91;;;8.63;64.00
70900;BME280;67902;52.154;5.430;2023-04-27T07:19:48;102277.84;;;8.79;64.51
70900;BME280;67902;52.154;5.430;2023-04-27T07:22:15;102279.31;;;9.09;62.01
70900;BME280;67902;52.154;5.430;2023-04-27T07:24:41;102274.16;;;9.14;61.73
70900;BME280;67902;52.154;5.430;2023-04-27T07:27:07;102281.41;;;9.55;63.21
70900;BME280;67902;52.154;5.430;2023-04-27T07:29:35;102276.66;;;9.57;63.14
70900;BME280;67902;52.154;5.430;2023-04-27T07:32:06;102283.69;;;9.51;60.24
70900;BME280;67902;52.154;5.430;2023-04-27T07:34:34;102270.06;;;9.79;59.57
70900;BME280;67902;52.154;5.430;2023-04-27T07:37:18;102271.75;;;10.00;58.43
70900;BME280;67902;52.154;5.430;2023-04-27T07:39:45;102263.09;;;10.17;59.15
70900;BME280;67902;52.154;5.430;2023-04-27T07:42:11;102258.50;;;10.31;58.86
70900;BME280;67902;52.154;5.430;2023-04-27T07:44:38;102258.09;;;10.47;55.25
70900;BME280;67902;52.154;5.430;2023-04-27T07:47:05;102262.69;;;10.66;59.47
70900;BME280;67902;52.154;5.430;2023-04-27T07:49:32;102257.25;;;10.73;54.86
70900;BME280;67902;52.154;5.430;2023-04-27T07:51:59;102264.13;;;10.82;57.47
70900;BME280;67902;52.154;5.430;2023-04-27T07:54:26;102268.94;;;10.54;56.38
70900;BME280;67902;52.154;5.430;2023-04-27T07:56:53;102269.75;;;10.47;57.43
70900;BME280;67902;52.154;5.430;2023-04-27T07:59:19;102271.84;;;10.59;57.02
70900;BME280;67902;52.154;5.430;2023-04-27T08:01:46;102272.88;;;10.71;55.31
70900;BME280;67902;52.154;5.430;2023-04-27T08:04:13;102266.81;;;10.82;58.22
70900;BME280;67902;52.154;5.430;2023-04-27T08:06:41;102265.16;;;10.87;57.54
70900;BME280;67902;52.154;5.430;2023-04-27T08:09:08;102263.44;;;11.06;52.46
70900;BME280;67902;52.154;5.430;2023-04-27T08:11:35;102261.31;;;11.21;52.51
70900;BME280;67902;52.154;5.430;2023-04-27T08:14:02;102255.63;;;11.42;52.95
70900;BME280;67902;52.154;5.430;2023-04-27T08:16:28;102259.00;;;11.82;49.61
70900;BME280;67902;52.154;5.430;2023-04-27T08:18:54;102269.81;;;11.89;48.93
70900;BME280;67902;52.154;5.430;2023-04-27T08:21:23;102275.06;;;11.84;49.37
70900;BME280;67902;52.154;5.430;2023-04-27T08:23:50;102262.72;;;11.88;49.90
70900;BME280;67902;52.154;5.430;2023-04-27T08:26:16;102259.50;;;12.04;50.30
70900;BME280;67902;52.154;5.430;2023-04-27T08:28:43;102264.25;;;12.64;48.54
70900;BME280;67902;52.154;5.430;2023-04-27T08:31:09;102267.72;;;12.47;48.80
70900;BME280;67902;52.154;5.430;2023-04-27T08:33:36;102274.13;;;12.34;47.44
70900;BME280;67902;52.154;5.430;2023-04-27T08:36:03;102269.13;;;12.31;49.03
70900;BME280;67902;52.154;5.430;2023-04-27T08:38:30;102266.25;;;12.51;48.88
70900;BME280;67902;52.154;5.430;2023-04-27T08:40:58;102255.00;;;12.90;47.58
70900;BME280;67902;52.154;5.430;2023-04-27T08:43:43;102252.00;;;12.98;47.27
70900;BME280;67902;52.154;5.430;2023-04-27T08:46:10;102247.84;;;12.96;45.93
70900;BME280;67902;52.154;5.430;2023-04-27T08:48:36;102249.53;;;13.15;48.01
70900;BME280;67902;52.154;5.430;2023-04-27T08:51:08;102246.81;;;13.33;45.81
70900;BME280;67902;52.154;5.430;2023-04-27T08:53:36;102247.56;;;13.40;44.33
70900;BME280;67902;52.154;5.430;2023-04-27T08:56:03;102247.03;;;13.79;43.22
70900;BME280;67902;52.154;5.430;2023-04-27T08:58:36;102243.38;;;14.27;46.35
70900;BME280;67902;52.154;5.430;2023-04-27T09:01:06;102247.25;;;14.49;41.87
70900;BME280;67902;52.154;5.430;2023-04-27T09:03:34;102253.13;;;14.23;42.45
70900;BME280;67902;52.154;5.430;2023-04-27T09:06:02;102257.91;;;14.39;42.68
70900;BME280;67902;52.154;5.430;2023-04-27T09:08:45;102249.03;;;14.67;43.37
70900;BME280;67902;52.154;5.430;2023-04-27T09:11:26;102248.59;;;14.17;43.11
70900;BME280;67902;52.154;5.430;2023-04-27T09:13:53;102254.22;;;14.04;42.88
70900;BME280;67902;52.154;5.430;2023-04-27T09:16:23;102250.41;;;14.34;42.47
70900;BME280;67902;52.154;5.430;2023-04-27T09:18:50;102250.59;;;14.51;42.68
70900;BME280;67902;52.154;5.430;2023-04-27T09:21:24;102242.38;;;14.63;41.09
70900;BME280;67902;52.154;5.430;2023-04-27T09:23:51;102236.84;;;14.92;39.71
70900;BME280;67902;52.154;5.430;2023-04-27T09:26:25;102241.03;;;15.35;42.04
70900;BME280;67902;52.154;5.430;2023-04-27T09:28:53;102235.19;;;15.54;38.34
70900;BME280;67902;52.154;5.430;2023-04-27T09:31:36;102237.69;;;15.33;38.18
70900;BME280;67902;52.154;5.430;2023-04-27T09:34:03;102226.25;;;15.59;38.92
70900;BME280;67902;52.154;5.430;2023-04-27T09:36:30;102229.38;;;15.39;38.91
70900;BME280;67902;52.154;5.430;2023-04-27T09:39:01;102228.63;;;15.44;39.04
70900;BME280;67902;52.154;5.430;2023-04-27T09:41:31;102227.28;;;15.70;37.06
70900;BME280;67902;52.154;5.430;2023-04-27T09:43:58;102219.69;;;15.72;36.35
70900;BME280;67902;52.154;5.430;2023-04-27T09:46:27;102218.41;;;15.91;38.07
70900;BME280;67902;52.154;5.430;2023-04-27T09:48:55;102226.38;;;16.25;38.83
70900;BME280;67902;52.154;5.430;2023-04-27T09:51:21;102231.28;;;15.79;35.94
70900;BME280;67902;52.154;5.430;2023-04-27T09:53:52;102230.56;;;15.55;37.32
70900;BME280;67902;52.154;5.430;2023-04-27T09:59:35;102222.41;;;16.83;36.91
70900;BME280;67902;52.154;5.430;2023-04-27T10:02:05;102217.47;;;16.63;34.58
70900;BME280;67902;52.154;5.430;2023-04-27T10:05:28;102227.53;;;16.79;35.36
70900;BME280;67902;52.154;5.430;2023-04-27T10:07:58;102219.44;;;16.68;34.71
70900;BME280;67902;52.154;5.430;2023-04-27T10:10:25;102208.47;;;16.68;36.13
70900;BME280;67902;52.154;5.430;2023-04-27T10:13:01;102222.16;;;16.35;35.21
70900;BME280;67902;52.154;5.430;2023-04-27T10:15:28;102216.78;;;16.56;37.67
70900;BME280;67902;52.154;5.430;2023-04-27T10:17:55;102224.16;;;16.72;38.07
70900;BME280;67902;52.154;5.430;2023-04-27T10:20:36;102221.97;;;16.91;37.44
70900;BME280;67902;52.154;5.430;2023-04-27T10:23:03;102225.25;;;16.55;35.91
70900;BME280;67902;52.154;5.430;2023-04-27T10:25:40;102217.44;;;16.80;36.75
70900;BME280;67902;52.154;5.430;2023-04-27T10:28:07;102217.38;;;16.97;33.99
70900;BME280;67902;52.154;5.430;2023-04-27T10:30:36;102213.38;;;17.04;33.65
70900;BME280;67902;52.154;5.430;2023-04-27T10:33:10;102210.28;;;16.79;34.01
70900;BME280;67902;52.154;5.430;2023-04-27T10:35:39;102218.28;;;16.31;33.97
70900;BME280;67902;52.154;5.430;2023-04-27T10:38:08;102203.84;;;16.52;35.03
70900;BME280;67902;52.154;5.430;2023-04-27T10:40:37;102207.41;;;16.69;34.41
70900;BME280;67902;52.154;5.430;2023-04-27T10:43:13;102213.03;;;16.79;33.81
70900;BME280;67902;52.154;5.430;2023-04-27T10:45:40;102213.63;;;16.81;34.59
70900;BME280;67902;52.154;5.430;2023-04-27T10:48:08;102209.78;;;16.82;36.03
70900;BME280;67902;52.154;5.430;2023-04-27T10:50:38;102210.59;;;16.61;33.00
70900;BME280;67902;52.154;5.430;2023-04-27T10:53:06;102206.84;;;16.67;34.69
70900;BME280;67902;52.154;5.430;2023-04-27T10:55:34;102197.59;;;17.11;34.30
70900;BME280;67902;52.154;5.430;2023-04-27T10:58:01;102200.56;;;16.88;34.78
70900;BME280;67902;52.154;5.430;2023-04-27T11:02:57;102195.44;;;17.13;33.99
70900;BME280;67902;52.154;5.430;2023-04-27T11:05:26;102195.88;;;17.27;32.02
70900;BME280;67902;52.154;5.430;2023-04-27T11:08:09;102189.84;;;17.52;33.19
70900;BME280;67902;52.154;5.430;2023-04-27T11:10:45;102188.59;;;17.86;32.08
70900;BME280;67902;52.154;5.430;2023-04-27T11:13:14;102187.41;;;18.04;32.83
70900;BME280;67902;52.154;5.430;2023-04-27T11:15:48;102181.94;;;18.35;32.49
70900;BME280;67902;52.154;5.430;2023-04-27T11:18:18;102171.84;;;18.09;33.18
70900;BME280;67902;52.154;5.430;2023-04-27T11:20:47;102176.41;;;17.99;31.83
70900;BME280;67902;52.154;5.430;2023-04-27T11:23:28;102171.13;;;17.92;34.13
70900;BME280;67902;52.154;5.430;2023-04-27T11:25:55;102154.72;;;17.97;33.34
70900;BME280;67902;52.154;5.430;2023-04-27T11:28:22;102157.63;;;18.17;36.81
70900;BME280;67902;52.154;5.430;2023-04-27T11:30:57;102157.81;;;18.42;33.46
70900;BME280;67902;52.154;5.430;2023-04-27T11:33:25;102157.69;;;19.11;35.54
70900;BME280;67902;52.154;5.430;2023-04-27T11:35:52;102146.72;;;19.21;31.76
70900;BME280;67902;52.154;5.430;2023-04-27T11:38:20;102155.47;;;19.03;32.79
70900;BME280;67902;52.154;5.430;2023-04-27T11:41:04;102153.84;;;19.12;32.39
70900;BME280;67902;52.154;5.430;2023-04-27T11:43:32;102151.69;;;19.29;31.70
70900;BME280;67902;52.154;5.430;2023-04-27T11:46:03;102150.44;;;18.90;30.31
70900;BME280;67902;52.154;5.430;2023-04-27T11:48:29;102144.13;;;18.89;31.64
70900;BME280;67902;52.154;5.430;2023-04-27T11:50:57;102149.06;;;18.92;32.87
70900;BME280;67902;52.154;5.430;2023-04-27T11:53:35;102153.06;;;18.65;33.36
70900;BME280;67902;52.154;5.430;2023-04-27T11:56:03;102152.22;;;18.27;31.26
70900;BME280;67902;52.154;5.430;2023-04-27T11:58:37;102141.06;;;18.81;29.94
70900;BME280;67902;52.154;5.430;2023-04-27T12:01:04;102138.88;;;18.78;31.00
70900;BME280;67902;52.154;5.430;2023-04-27T12:03:30;102134.25;;;18.88;33.48
70900;BME280;67902;52.154;5.430;2023-04-27T12:05:57;102130.47;;;19.04;32.88
70900;BME280;67902;52.154;5.430;2023-04-27T12:08:44;102131.44;;;19.45;32.17
70900;BME280;67902;52.154;5.430;2023-04-27T12:11:10;102137.50;;;19.57;28.90
70900;BME280;67902;52.154;5.430;2023-04-27T12:13:36;102132.31;;;19.56;31.84
70900;BME280;67902;52.154;5.430;2023-04-27T12:16:03;102130.09;;;19.58;29.61
70900;BME280;67902;52.154;5.430;2023-04-27T12:18:30;102128.09;;;19.28;29.55
70900;BME280;67902;52.154;5.430;2023-04-27T12:20:57;102134.06;;;19.10;31.09
70900;BME280;67902;52.154;5.430;2023-04-27T12:23:28;102136.97;;;19.65;30.81
70900;BME280;67902;52.154;5.430;2023-04-27T12:25:54;102135.22;;;19.34;28.32
70900;BME280;67902;52.154;5.430;2023-04-27T12:28:21;102130.69;;;18.93;30.47
70900;BME280;67902;52.154;5.430;2023-04-27T12:30:48;102122.84;;;19.17;29.99
70900;BME280;67902;52.154;5.430;2023-04-27T12:33:15;102120.50;;;19.76;32.07
70900;BME280;67902;52.154;5.430;2023-04-27T12:35:41;102110.59;;;20.15;29.38
70900;BME280;67902;52.154;5.430;2023-04-27T12:38:08;102106.19;;;20.39;31.26
70900;BME280;67902;52.154;5.430;2023-04-27T12:40:34;102096.63;;;20.96;29.33
70900;BME280;67902;52.154;5.430;2023-04-27T12:43:01;102097.38;;;21.16;27.52
70900;BME280;67902;52.154;5.430;2023-04-27T12:45:27;102095.00;;;20.90;28.19
70900;BME280;67902;52.154;5.430;2023-04-27T12:47:53;102102.47;;;20.79;28.27
70900;BME280;67902;52.154;5.430;2023-04-27T12:50:32;102091.91;;;20.32;28.59
70900;BME280;67902;52.154;5.430;2023-04-27T12:52:59;102101.25;;;20.26;30.73
70900;BME280;67902;52.154;5.430;2023-04-27T12:55:26;102099.22;;;20.62;29.90
70900;BME280;67902;52.154;5.430;2023-04-27T12:57:59;102100.16;;;21.01;26.99
70900;BME280;67902;52.154;5.430;2023-04-27T13:00:25;102101.19;;;21.20;27.55
70900;BME280;67902;52.154;5.430;2023-04-27T13:02:52;102096.00;;;21.19;26.41
70900;BME280;67902;52.154;5.430;2023-04-27T13:05:19;102100.47;;;20.95;27.13